sensor_id;sensor_type;location;lat;lon;timestamp;temperature;humidity
10538;DHT22;5317;49.048;8.468;2022-07-22T00:02:20;25.00;61.00
10538;DHT22;5317;49.048;8.468;2022-07-22T00:04:47;25.00;61.10
10538;DHT22;5317;49.048;8.468;2022-07-22T00:07:14;25.00;61.00
10538;DHT22;5317;49.048;8.468;2022-07-22T00:09:42;25.00;61.30
10538;DHT22;5317;49.048;8.468;2022-07-22T00:12:09;25.00;61.20
10538;DHT22;5317;49.048;8.468;2022-07-22T00:14:37;24.90;61.40
10538;DHT22;5317;49.048;8.468;2022-07-22T00:17:04;24.90;62.10
10538;DHT22;5317;49.048;8.468;2022-07-22T00:19:32;24.90;61.50
10538;DHT22;5317;49.048;8.468;2022-07-22T00:22:00;24.90;61.60
10538;DHT22;5317;49.048;8.468;2022-07-22T00:24:27;24.80;62.30
10538;DHT22;5317;49.048;8.468;2022-07-22T00:26:54;24.80;61.70
10538;DHT22;5317;49.048;8.468;2022-07-22T00:29:24;24.80;61.80
10538;DHT22;5317;49.048;8.468;2022-07-22T00:31:51;24.80;61.80
10538;DHT22;5317;49.048;8.468;2022-07-22T00:34:19;24.80;62.00
10538;DHT22;5317;49.048;8.468;2022-07-22T00:36:47;24.80;62.20
10538;DHT22;5317;49.048;8.468;2022-07-22T00:39:15;24.70;62.30
10538;DHT22;5317;49.048;8.468;2022-07-22T00:41:42;24.80;62.40
10538;DHT22;5317;49.048;8.468;2022-07-22T00:44:10;24.70;62.50
10538;DHT22;5317;49.048;8.468;2022-07-22T00:46:38;24.70;62.60
10538;DHT22;5317;49.048;8.468;2022-07-22T00:49:06;24.60;62.60
10538;DHT22;5317;49.048;8.468;2022-07-22T00:51:34;24.60;63.90
10538;DHT22;5317;49.048;8.468;2022-07-22T00:54:07;24.60;63.10
10538;DHT22;5317;49.048;8.468;2022-07-22T00:56:34;24.60;63.50
10538;DHT22;5317;49.048;8.468;2022-07-22T00:59:06;24.60;63.50
10538;DHT22;5317;49.048;8.468;2022-07-22T01:01:35;24.60;63.50
10538;DHT22;5317;49.048;8.468;2022-07-22T01:04:03;24.50;63.30
10538;DHT22;5317;49.048;8.468;2022-07-22T01:06:31;24.50;63.70
10538;DHT22;5317;49.048;8.468;2022-07-22T01:09:00;24.50;64.10
10538;DHT22;5317;49.048;8.468;2022-07-22T01:11:29;24.40;64.10
10538;DHT22;5317;49.048;8.468;2022-07-22T01:13:57;24.40;64.90
10538;DHT22;5317;49.048;8.468;2022-07-22T01:16:24;24.40;64.10
10538;DHT22;5317;49.048;8.468;2022-07-22T01:18:52;24.30;64.10
10538;DHT22;5317;49.048;8.468;2022-07-22T01:21:21;24.30;63.90
10538;DHT22;5317;49.048;8.468;2022-07-22T01:23:48;24.20;64.30
10538;DHT22;5317;49.048;8.468;2022-07-22T01:26:16;24.30;64.30
10538;DHT22;5317;49.048;8.468;2022-07-22T01:28:46;24.20;65.40
10538;DHT22;5317;49.048;8.468;2022-07-22T01:31:13;24.10;64.60
10538;DHT22;5317;49.048;8.468;2022-07-22T01:33:41;24.10;64.70
10538;DHT22;5317;49.048;8.468;2022-07-22T01:36:09;24.10;64.90
10538;DHT22;5317;49.048;8.468;2022-07-22T01:38:38;23.90;65.30
10538;DHT22;5317;49.048;8.468;2022-07-22T01:41:06;23.90;65.70
10538;DHT22;5317;49.048;8.468;2022-07-22T01:43:33;23.80;65.70
10538;DHT22;5317;49.048;8.468;2022-07-22T01:46:00;23.80;65.80
10538;DHT22;5317;49.048;8.468;2022-07-22T01:48:28;23.80;66.60
10538;DHT22;5317;49.048;8.468;2022-07-22T01:50:56;23.80;66.00
10538;DHT22;5317;49.048;8.468;2022-07-22T01:53:26;23.80;66.20
10538;DHT22;5317;49.048;8.468;2022-07-22T01:55:57;23.70;66.10
10538;DHT22;5317;49.048;8.468;2022-07-22T01:58:24;23.70;66.10
10538;DHT22;5317;49.048;8.468;2022-07-22T02:00:51;23.60;66.30
10538;DHT22;5317;49.048;8.468;2022-07-22T02:03:21;23.60;66.40
10538;DHT22;5317;49.048;8.468;2022-07-22T02:05:48;23.60;66.40
10538;DHT22;5317;49.048;8.468;2022-07-22T02:08:16;23.60;66.20
10538;DHT22;5317;49.048;8.468;2022-07-22T02:10:44;23.60;66.20
10538;DHT22;5317;49.048;8.468;2022-07-22T02:13:12;23.60;66.60
10538;DHT22;5317;49.048;8.468;2022-07-22T02:15:40;23.50;66.40
10538;DHT22;5317;49.048;8.468;2022-07-22T02:18:12;23.50;66.40
10538;DHT22;5317;49.048;8.468;2022-07-22T02:20:41;23.50;66.80
10538;DHT22;5317;49.048;8.468;2022-07-22T02:23:09;23.50;66.70
10538;DHT22;5317;49.048;8.468;2022-07-22T02:25:38;23.50;67.10
10538;DHT22;5317;49.048;8.468;2022-07-22T02:28:06;23.40;67.00
10538;DHT22;5317;49.048;8.468;2022-07-22T02:30:36;23.40;67.10
10538;DHT22;5317;49.048;8.468;2022-07-22T02:33:04;23.20;67.70
10538;DHT22;5317;49.048;8.468;2022-07-22T02:35:31;23.10;68.20
10538;DHT22;5317;49.048;8.468;2022-07-22T02:37:59;23.10;68.10
10538;DHT22;5317;49.048;8.468;2022-07-22T02:40:26;23.10;68.30
10538;DHT22;5317;49.048;8.468;2022-07-22T02:42:53;23.00;69.10
10538;DHT22;5317;49.048;8.468;2022-07-22T02:45:20;22.90;69.30
10538;DHT22;5317;49.048;8.468;2022-07-22T02:47:51;22.90;69.00
10538;DHT22;5317;49.048;8.468;2022-07-22T02:50:22;23.00;69.00
10538;DHT22;5317;49.048;8.468;2022-07-22T02:52:51;23.00;68.90
10538;DHT22;5317;49.048;8.468;2022-07-22T02:55:19;23.00;68.90
10538;DHT22;5317;49.048;8.468;2022-07-22T02:57:46;23.00;68.90
10538;DHT22;5317;49.048;8.468;2022-07-22T03:00:14;23.00;68.80
10538;DHT22;5317;49.048;8.468;2022-07-22T03:02:43;23.00;69.10
10538;DHT22;5317;49.048;8.468;2022-07-22T03:05:11;23.00;68.90
10538;DHT22;5317;49.048;8.468;2022-07-22T03:07:39;23.00;68.90
10538;DHT22;5317;49.048;8.468;2022-07-22T03:10:07;22.90;68.70
10538;DHT22;5317;49.048;8.468;2022-07-22T03:12:35;22.90;68.70
10538;DHT22;5317;49.048;8.468;2022-07-22T03:15:03;22.90;68.70
10538;DHT22;5317;49.048;8.468;2022-07-22T03:17:33;22.90;68.70
10538;DHT22;5317;49.048;8.468;2022-07-22T03:20:02;22.90;68.60
10538;DHT22;5317;49.048;8.468;2022-07-22T03:22:32;22.80;68.60
10538;DHT22;5317;49.048;8.468;2022-07-22T03:24:59;22.90;68.70
10538;DHT22;5317;49.048;8.468;2022-07-22T03:27:27;22.80;68.70
10538;DHT22;5317;49.048;8.468;2022-07-22T03:29:54;22.80;68.70
10538;DHT22;5317;49.048;8.468;2022-07-22T03:32:21;22.70;68.60
10538;DHT22;5317;49.048;8.468;2022-07-22T03:34:49;22.70;68.80
10538;DHT22;5317;49.048;8.468;2022-07-22T03:37:16;22.60;68.90
10538;DHT22;5317;49.048;8.468;2022-07-22T03:39:45;22.60;69.30
10538;DHT22;5317;49.048;8.468;2022-07-22T03:42:12;22.60;69.70
10538;DHT22;5317;49.048;8.468;2022-07-22T03:44:40;22.60;69.50
10538;DHT22;5317;49.048;8.468;2022-07-22T03:47:07;22.50;69.80
10538;DHT22;5317;49.048;8.468;2022-07-22T03:49:35;22.50;69.80
10538;DHT22;5317;49.048;8.468;2022-07-22T03:52:02;22.60;70.00
10538;DHT22;5317;49.048;8.468;2022-07-22T03:54:29;22.60;70.20
10538;DHT22;5317;49.048;8.468;2022-07-22T03:56:58;22.50;70.20
10538;DHT22;5317;49.048;8.468;2022-07-22T03:59:25;22.50;70.10
10538;DHT22;5317;49.048;8.468;2022-07-22T04:01:52;22.50;70.10
10538;DHT22;5317;49.048;8.468;2022-07-22T04:04:22;22.50;70.20
10538;DHT22;5317;49.048;8.468;2022-07-22T04:06:49;22.50;70.20
10538;DHT22;5317;49.048;8.468;2022-07-22T04:09:17;22.50;70.10
10538;DHT22;5317;49.048;8.468;2022-07-22T04:11:45;22.50;71.20
10538;DHT22;5317;49.048;8.468;2022-07-22T04:14:14;22.50;71.30
10538;DHT22;5317;49.048;8.468;2022-07-22T04:16:41;22.50;70.60
10538;DHT22;5317;49.048;8.468;2022-07-22T04:19:09;22.50;70.70
10538;DHT22;5317;49.048;8.468;2022-07-22T04:21:37;22.50;70.70
10538;DHT22;5317;49.048;8.468;2022-07-22T04:24:05;22.50;70.80
10538;DHT22;5317;49.048;8.468;2022-07-22T04:26:33;22.50;71.10
10538;DHT22;5317;49.048;8.468;2022-07-22T04:29:02;22.50;71.30
10538;DHT22;5317;49.048;8.468;2022-07-22T04:31:31;22.60;71.20
10538;DHT22;5317;49.048;8.468;2022-07-22T04:33:58;22.50;71.20
10538;DHT22;5317;49.048;8.468;2022-07-22T04:36:26;22.60;71.40
10538;DHT22;5317;49.048;8.468;2022-07-22T04:38:53;22.60;71.60
10538;DHT22;5317;49.048;8.468;2022-07-22T04:41:20;22.60;71.40
10538;DHT22;5317;49.048;8.468;2022-07-22T04:43:47;22.60;71.40
10538;DHT22;5317;49.048;8.468;2022-07-22T04:46:15;22.60;71.60
10538;DHT22;5317;49.048;8.468;2022-07-22T04:48:43;22.60;72.40
10538;DHT22;5317;49.048;8.468;2022-07-22T04:51:10;22.70;72.10
10538;DHT22;5317;49.048;8.468;2022-07-22T04:53:38;22.70;72.20
10538;DHT22;5317;49.048;8.468;2022-07-22T04:56:06;22.70;73.00
10538;DHT22;5317;49.048;8.468;2022-07-22T04:58:33;22.70;72.20
10538;DHT22;5317;49.048;8.468;2022-07-22T05:01:00;22.70;71.80
10538;DHT22;5317;49.048;8.468;2022-07-22T05:03:29;22.80;71.90
10538;DHT22;5317;49.048;8.468;2022-07-22T05:05:57;22.80;71.80
10538;DHT22;5317;49.048;8.468;2022-07-22T05:08:24;22.80;71.90
10538;DHT22;5317;49.048;8.468;2022-07-22T05:10:51;22.90;72.60
10538;DHT22;5317;49.048;8.468;2022-07-22T05:13:19;22.90;71.40
10538;DHT22;5317;49.048;8.468;2022-07-22T05:15:46;22.90;71.50
10538;DHT22;5317;49.048;8.468;2022-07-22T05:18:13;23.00;71.80
10538;DHT22;5317;49.048;8.468;2022-07-22T05:20:40;23.00;72.30
10538;DHT22;5317;49.048;8.468;2022-07-22T05:23:09;23.00;71.30
10538;DHT22;5317;49.048;8.468;2022-07-22T05:25:36;23.10;71.30
10538;DHT22;5317;49.048;8.468;2022-07-22T05:28:03;23.10;71.10
10538;DHT22;5317;49.048;8.468;2022-07-22T05:30:31;23.20;71.00
10538;DHT22;5317;49.048;8.468;2022-07-22T05:32:58;23.20;70.70
10538;DHT22;5317;49.048;8.468;2022-07-22T05:35:25;23.30;70.60
10538;DHT22;5317;49.048;8.468;2022-07-22T05:37:52;23.30;70.20
10538;DHT22;5317;49.048;8.468;2022-07-22T05:40:21;23.30;69.90
10538;DHT22;5317;49.048;8.468;2022-07-22T05:42:48;23.40;69.50
10538;DHT22;5317;49.048;8.468;2022-07-22T05:45:15;23.40;69.40
10538;DHT22;5317;49.048;8.468;2022-07-22T05:47:43;23.50;69.40
10538;DHT22;5317;49.048;8.468;2022-07-22T05:50:10;23.50;69.30
10538;DHT22;5317;49.048;8.468;2022-07-22T05:52:37;23.60;68.70
10538;DHT22;5317;49.048;8.468;2022-07-22T05:55:05;23.70;68.50
10538;DHT22;5317;49.048;8.468;2022-07-22T05:57:35;23.80;68.40
10538;DHT22;5317;49.048;8.468;2022-07-22T06:00:03;23.80;68.00
10538;DHT22;5317;49.048;8.468;2022-07-22T06:02:31;23.90;67.70
10538;DHT22;5317;49.048;8.468;2022-07-22T06:04:58;24.00;67.60
10538;DHT22;5317;49.048;8.468;2022-07-22T06:07:26;24.10;67.50
10538;DHT22;5317;49.048;8.468;2022-07-22T06:09:53;24.20;66.90
10538;DHT22;5317;49.048;8.468;2022-07-22T06:12:20;24.30;66.80
10538;DHT22;5317;49.048;8.468;2022-07-22T06:14:49;24.40;66.90
10538;DHT22;5317;49.048;8.468;2022-07-22T06:17:16;24.40;66.80
10538;DHT22;5317;49.048;8.468;2022-07-22T06:19:43;24.50;66.40
10538;DHT22;5317;49.048;8.468;2022-07-22T06:22:10;24.60;66.70
10538;DHT22;5317;49.048;8.468;2022-07-22T06:24:37;24.60;65.80
10538;DHT22;5317;49.048;8.468;2022-07-22T06:27:04;24.70;65.60
10538;DHT22;5317;49.048;8.468;2022-07-22T06:29:31;24.80;65.60
10538;DHT22;5317;49.048;8.468;2022-07-22T06:32:00;24.80;65.60
10538;DHT22;5317;49.048;8.468;2022-07-22T06:34:27;24.90;65.40
10538;DHT22;5317;49.048;8.468;2022-07-22T06:36:55;25.00;65.00
10538;DHT22;5317;49.048;8.468;2022-07-22T06:39:22;25.00;64.70
10538;DHT22;5317;49.048;8.468;2022-07-22T06:41:49;25.10;64.60
10538;DHT22;5317;49.048;8.468;2022-07-22T06:44:16;25.20;64.40
10538;DHT22;5317;49.048;8.468;2022-07-22T06:46:43;25.30;64.10
10538;DHT22;5317;49.048;8.468;2022-07-22T06:49:12;25.30;64.80
10538;DHT22;5317;49.048;8.468;2022-07-22T06:51:42;25.40;63.80
10538;DHT22;5317;49.048;8.468;2022-07-22T06:54:09;25.50;63.40
10538;DHT22;5317;49.048;8.468;2022-07-22T06:56:36;25.60;63.30
10538;DHT22;5317;49.048;8.468;2022-07-22T06:59:04;25.60;63.20
10538;DHT22;5317;49.048;8.468;2022-07-22T07:01:31;25.60;63.20
10538;DHT22;5317;49.048;8.468;2022-07-22T07:03:58;25.60;63.20
10538;DHT22;5317;49.048;8.468;2022-07-22T07:06:27;25.70;63.30
10538;DHT22;5317;49.048;8.468;2022-07-22T07:08:54;25.70;63.70
10538;DHT22;5317;49.048;8.468;2022-07-22T07:11:23;25.70;63.30
10538;DHT22;5317;49.048;8.468;2022-07-22T07:13:52;25.80;63.20
10538;DHT22;5317;49.048;8.468;2022-07-22T07:16:20;25.80;63.20
10538;DHT22;5317;49.048;8.468;2022-07-22T07:18:47;25.80;62.90
10538;DHT22;5317;49.048;8.468;2022-07-22T07:21:14;25.90;62.70
10538;DHT22;5317;49.048;8.468;2022-07-22T07:23:43;26.00;62.80
10538;DHT22;5317;49.048;8.468;2022-07-22T07:26:10;26.10;62.90
10538;DHT22;5317;49.048;8.468;2022-07-22T07:28:37;26.10;62.50
10538;DHT22;5317;49.048;8.468;2022-07-22T07:31:04;26.20;62.20
10538;DHT22;5317;49.048;8.468;2022-07-22T07:33:32;26.30;62.60
10538;DHT22;5317;49.048;8.468;2022-07-22T07:36:00;26.30;62.00
10538;DHT22;5317;49.048;8.468;2022-07-22T07:38:27;26.40;62.00
10538;DHT22;5317;49.048;8.468;2022-07-22T07:40:56;26.40;61.40
10538;DHT22;5317;49.048;8.468;2022-07-22T07:43:27;26.50;61.40
10538;DHT22;5317;49.048;8.468;2022-07-22T07:45:54;26.60;61.50
10538;DHT22;5317;49.048;8.468;2022-07-22T07:48:21;26.60;60.90
10538;DHT22;5317;49.048;8.468;2022-07-22T07:50:51;26.70;60.60
10538;DHT22;5317;49.048;8.468;2022-07-22T07:53:19;26.70;61.10
10538;DHT22;5317;49.048;8.468;2022-07-22T07:55:47;26.80;60.80
10538;DHT22;5317;49.048;8.468;2022-07-22T07:58:16;26.90;60.00
10538;DHT22;5317;49.048;8.468;2022-07-22T08:00:44;27.00;60.20
10538;DHT22;5317;49.048;8.468;2022-07-22T08:03:12;27.10;60.20
10538;DHT22;5317;49.048;8.468;2022-07-22T08:05:40;27.20;60.20
10538;DHT22;5317;49.048;8.468;2022-07-22T08:08:08;27.30;59.50
10538;DHT22;5317;49.048;8.468;2022-07-22T08:10:35;27.30;59.50
10538;DHT22;5317;49.048;8.468;2022-07-22T08:13:03;27.40;59.30
10538;DHT22;5317;49.048;8.468;2022-07-22T08:15:32;27.50;59.00
10538;DHT22;5317;49.048;8.468;2022-07-22T08:17:59;27.60;58.90
10538;DHT22;5317;49.048;8.468;2022-07-22T08:20:28;27.60;59.00
10538;DHT22;5317;49.048;8.468;2022-07-22T08:22:55;27.80;58.60
10538;DHT22;5317;49.048;8.468;2022-07-22T08:25:25;27.80;58.80
10538;DHT22;5317;49.048;8.468;2022-07-22T08:27:52;27.90;58.50
10538;DHT22;5317;49.048;8.468;2022-07-22T08:30:20;27.90;57.80
10538;DHT22;5317;49.048;8.468;2022-07-22T08:32:50;28.00;57.90
10538;DHT22;5317;49.048;8.468;2022-07-22T08:35:17;28.10;57.80
10538;DHT22;5317;49.048;8.468;2022-07-22T08:37:45;28.20;57.40
10538;DHT22;5317;49.048;8.468;2022-07-22T08:40:13;28.20;57.60
10538;DHT22;5317;49.048;8.468;2022-07-22T08:42:43;28.30;57.00
10538;DHT22;5317;49.048;8.468;2022-07-22T08:45:12;28.30;56.90
10538;DHT22;5317;49.048;8.468;2022-07-22T08:47:39;28.40;56.40
10538;DHT22;5317;49.048;8.468;2022-07-22T08:50:08;28.40;56.10
10538;DHT22;5317;49.048;8.468;2022-07-22T08:52:35;28.50;56.60
10538;DHT22;5317;49.048;8.468;2022-07-22T08:55:03;28.50;55.70
10538;DHT22;5317;49.048;8.468;2022-07-22T08:57:31;28.60;56.00
10538;DHT22;5317;49.048;8.468;2022-07-22T09:00:00;28.70;56.00
10538;DHT22;5317;49.048;8.468;2022-07-22T09:02:36;28.80;56.00
10538;DHT22;5317;49.048;8.468;2022-07-22T09:05:10;28.90;55.30
10538;DHT22;5317;49.048;8.468;2022-07-22T09:07:41;29.00;56.00
10538;DHT22;5317;49.048;8.468;2022-07-22T09:10:13;29.20;56.10
10538;DHT22;5317;49.048;8.468;2022-07-22T09:12:53;29.20;55.50
10538;DHT22;5317;49.048;8.468;2022-07-22T09:15:27;29.30;54.50
10538;DHT22;5317;49.048;8.468;2022-07-22T09:17:56;29.40;54.40
10538;DHT22;5317;49.048;8.468;2022-07-22T09:20:27;29.40;54.70
10538;DHT22;5317;49.048;8.468;2022-07-22T09:22:55;29.50;54.40
10538;DHT22;5317;49.048;8.468;2022-07-22T09:25:28;29.50;54.00
10538;DHT22;5317;49.048;8.468;2022-07-22T09:28:12;29.60;53.80
10538;DHT22;5317;49.048;8.468;2022-07-22T09:30:46;29.70;54.40
10538;DHT22;5317;49.048;8.468;2022-07-22T09:33:15;29.90;53.90
10538;DHT22;5317;49.048;8.468;2022-07-22T09:35:44;30.00;53.80
10538;DHT22;5317;49.048;8.468;2022-07-22T09:38:13;30.00;53.70
10538;DHT22;5317;49.048;8.468;2022-07-22T09:40:44;30.20;53.80
10538;DHT22;5317;49.048;8.468;2022-07-22T09:43:14;30.20;53.70
10538;DHT22;5317;49.048;8.468;2022-07-22T09:45:47;30.40;53.20
10538;DHT22;5317;49.048;8.468;2022-07-22T09:48:17;30.40;52.90
10538;DHT22;5317;49.048;8.468;2022-07-22T09:50:47;30.50;52.30
10538;DHT22;5317;49.048;8.468;2022-07-22T09:53:18;30.60;51.70
10538;DHT22;5317;49.048;8.468;2022-07-22T09:55:47;30.60;51.70
10538;DHT22;5317;49.048;8.468;2022-07-22T09:58:15;30.70;52.40
10538;DHT22;5317;49.048;8.468;2022-07-22T10:00:45;30.80;52.10
10538;DHT22;5317;49.048;8.468;2022-07-22T10:03:17;30.90;51.50
10538;DHT22;5317;49.048;8.468;2022-07-22T10:05:50;31.00;51.50
10538;DHT22;5317;49.048;8.468;2022-07-22T10:08:18;31.00;51.20
10538;DHT22;5317;49.048;8.468;2022-07-22T10:10:46;31.10;51.30
10538;DHT22;5317;49.048;8.468;2022-07-22T10:13:14;31.20;50.60
10538;DHT22;5317;49.048;8.468;2022-07-22T10:15:46;31.20;51.10
10538;DHT22;5317;49.048;8.468;2022-07-22T10:18:17;31.30;50.60
10538;DHT22;5317;49.048;8.468;2022-07-22T10:20:45;31.50;50.30
10538;DHT22;5317;49.048;8.468;2022-07-22T10:23:16;31.50;50.50
10538;DHT22;5317;49.048;8.468;2022-07-22T10:25:52;31.60;50.30
10538;DHT22;5317;49.048;8.468;2022-07-22T10:28:23;31.70;50.00
10538;DHT22;5317;49.048;8.468;2022-07-22T10:30:54;31.80;50.40
10538;DHT22;5317;49.048;8.468;2022-07-22T10:33:44;31.90;50.10
10538;DHT22;5317;49.048;8.468;2022-07-22T10:36:14;32.00;49.50
10538;DHT22;5317;49.048;8.468;2022-07-22T10:39:09;32.00;49.80
10538;DHT22;5317;49.048;8.468;2022-07-22T10:41:40;32.10;48.30
10538;DHT22;5317;49.048;8.468;2022-07-22T10:44:10;32.20;48.70
10538;DHT22;5317;49.048;8.468;2022-07-22T10:46:52;32.20;48.90
10538;DHT22;5317;49.048;8.468;2022-07-22T10:49:25;32.30;48.80
10538;DHT22;5317;49.048;8.468;2022-07-22T10:52:12;32.40;48.70
10538;DHT22;5317;49.048;8.468;2022-07-22T10:55:18;32.50;46.80
10538;DHT22;5317;49.048;8.468;2022-07-22T10:57:47;32.60;48.50
10538;DHT22;5317;49.048;8.468;2022-07-22T11:00:15;32.70;48.10
10538;DHT22;5317;49.048;8.468;2022-07-22T11:02:42;32.80;47.80
10538;DHT22;5317;49.048;8.468;2022-07-22T11:05:11;32.90;47.40
10538;DHT22;5317;49.048;8.468;2022-07-22T11:07:41;32.90;46.50
10538;DHT22;5317;49.048;8.468;2022-07-22T11:10:09;33.00;47.00
10538;DHT22;5317;49.048;8.468;2022-07-22T11:12:39;33.00;47.00
10538;DHT22;5317;49.048;8.468;2022-07-22T11:15:08;33.10;46.10
10538;DHT22;5317;49.048;8.468;2022-07-22T11:17:37;33.20;45.90
10538;DHT22;5317;49.048;8.468;2022-07-22T11:20:07;33.20;46.00
10538;DHT22;5317;49.048;8.468;2022-07-22T11:22:37;33.20;46.50
10538;DHT22;5317;49.048;8.468;2022-07-22T11:25:07;33.30;45.90
10538;DHT22;5317;49.048;8.468;2022-07-22T11:27:36;33.40;46.10
10538;DHT22;5317;49.048;8.468;2022-07-22T11:30:06;33.50;45.80
10538;DHT22;5317;49.048;8.468;2022-07-22T11:32:41;33.50;45.00
10538;DHT22;5317;49.048;8.468;2022-07-22T11:35:11;33.50;45.30
10538;DHT22;5317;49.048;8.468;2022-07-22T11:37:39;33.50;45.30
10538;DHT22;5317;49.048;8.468;2022-07-22T11:40:08;33.60;45.40
10538;DHT22;5317;49.048;8.468;2022-07-22T11:42:36;33.80;45.50
10538;DHT22;5317;49.048;8.468;2022-07-22T11:45:06;33.90;45.00
10538;DHT22;5317;49.048;8.468;2022-07-22T11:47:33;33.90;45.10
10538;DHT22;5317;49.048;8.468;2022-07-22T11:50:01;34.00;44.80
10538;DHT22;5317;49.048;8.468;2022-07-22T11:52:28;34.10;44.80
10538;DHT22;5317;49.048;8.468;2022-07-22T11:54:58;34.20;44.50
10538;DHT22;5317;49.048;8.468;2022-07-22T11:57:25;34.30;44.50
10538;DHT22;5317;49.048;8.468;2022-07-22T11:59:52;34.40;44.20
10538;DHT22;5317;49.048;8.468;2022-07-22T12:02:21;34.40;44.00
10538;DHT22;5317;49.048;8.468;2022-07-22T12:04:49;34.40;43.50
10538;DHT22;5317;49.048;8.468;2022-07-22T12:07:17;34.60;43.80
10538;DHT22;5317;49.048;8.468;2022-07-22T12:09:45;34.60;44.00
10538;DHT22;5317;49.048;8.468;2022-07-22T12:12:13;34.70;43.60
10538;DHT22;5317;49.048;8.468;2022-07-22T12:14:45;34.80;43.20
10538;DHT22;5317;49.048;8.468;2022-07-22T12:17:13;34.80;42.80
10538;DHT22;5317;49.048;8.468;2022-07-22T12:19:42;34.80;42.90
10538;DHT22;5317;49.048;8.468;2022-07-22T12:22:11;34.90;42.10
10538;DHT22;5317;49.048;8.468;2022-07-22T12:24:41;34.90;42.70
10538;DHT22;5317;49.048;8.468;2022-07-22T12:27:11;34.90;42.80
10538;DHT22;5317;49.048;8.468;2022-07-22T12:29:43;35.10;42.90
10538;DHT22;5317;49.048;8.468;2022-07-22T12:32:17;35.10;42.40
10538;DHT22;5317;49.048;8.468;2022-07-22T12:34:57;35.20;42.10
10538;DHT22;5317;49.048;8.468;2022-07-22T12:37:27;35.20;41.80
10538;DHT22;5317;49.048;8.468;2022-07-22T12:39:58;35.20;41.50
10538;DHT22;5317;49.048;8.468;2022-07-22T12:42:28;35.20;41.90
10538;DHT22;5317;49.048;8.468;2022-07-22T12:45:02;35.30;41.70
10538;DHT22;5317;49.048;8.468;2022-07-22T12:47:43;35.40;40.60
10538;DHT22;5317;49.048;8.468;2022-07-22T12:50:22;35.30;40.50
10538;DHT22;5317;49.048;8.468;2022-07-22T12:52:52;35.30;41.10
10538;DHT22;5317;49.048;8.468;2022-07-22T12:55:21;35.50;41.70
10538;DHT22;5317;49.048;8.468;2022-07-22T12:57:50;35.50;41.00
10538;DHT22;5317;49.048;8.468;2022-07-22T13:00:19;35.60;41.10
10538;DHT22;5317;49.048;8.468;2022-07-22T13:02:47;35.60;41.30
10538;DHT22;5317;49.048;8.468;2022-07-22T13:05:14;35.70;41.10
10538;DHT22;5317;49.048;8.468;2022-07-22T13:07:43;35.80;40.90
10538;DHT22;5317;49.048;8.468;2022-07-22T13:10:12;35.70;40.00
10538;DHT22;5317;49.048;8.468;2022-07-22T13:12:40;35.70;40.60
10538;DHT22;5317;49.048;8.468;2022-07-22T13:15:09;35.80;41.50
10538;DHT22;5317;49.048;8.468;2022-07-22T13:17:37;35.80;40.60
10538;DHT22;5317;49.048;8.468;2022-07-22T13:20:06;35.90;40.50
10538;DHT22;5317;49.048;8.468;2022-07-22T13:22:35;35.90;40.70
10538;DHT22;5317;49.048;8.468;2022-07-22T13:25:04;36.00;40.80
10538;DHT22;5317;49.048;8.468;2022-07-22T13:27:32;36.00;40.50
10538;DHT22;5317;49.048;8.468;2022-07-22T13:30:00;36.10;40.40
10538;DHT22;5317;49.048;8.468;2022-07-22T13:32:27;36.10;39.70
10538;DHT22;5317;49.048;8.468;2022-07-22T13:34:54;36.10;39.80
10538;DHT22;5317;49.048;8.468;2022-07-22T13:37:22;36.20;39.40
10538;DHT22;5317;49.048;8.468;2022-07-22T13:39:50;36.30;39.80
10538;DHT22;5317;49.048;8.468;2022-07-22T13:42:19;36.30;39.90
10538;DHT22;5317;49.048;8.468;2022-07-22T13:44:47;36.40;39.70
10538;DHT22;5317;49.048;8.468;2022-07-22T13:47:17;36.40;39.40
10538;DHT22;5317;49.048;8.468;2022-07-22T13:49:44;36.50;39.40
10538;DHT22;5317;49.048;8.468;2022-07-22T13:52:14;36.50;38.20
10538;DHT22;5317;49.048;8.468;2022-07-22T13:54:42;36.40;37.90
10538;DHT22;5317;49.048;8.468;2022-07-22T13:57:11;36.40;38.40
10538;DHT22;5317;49.048;8.468;2022-07-22T13:59:39;36.40;38.70
10538;DHT22;5317;49.048;8.468;2022-07-22T14:02:08;36.40;39.10
10538;DHT22;5317;49.048;8.468;2022-07-22T14:04:35;36.40;39.00
10538;DHT22;5317;49.048;8.468;2022-07-22T14:07:02;36.50;38.90
10538;DHT22;5317;49.048;8.468;2022-07-22T14:09:29;36.50;39.10
10538;DHT22;5317;49.048;8.468;2022-07-22T14:11:57;36.50;39.00
10538;DHT22;5317;49.048;8.468;2022-07-22T14:14:24;36.50;39.10
10538;DHT22;5317;49.048;8.468;2022-07-22T14:16:53;36.50;38.50
10538;DHT22;5317;49.048;8.468;2022-07-22T14:19:20;36.50;38.30
10538;DHT22;5317;49.048;8.468;2022-07-22T14:21:48;36.60;38.80
10538;DHT22;5317;49.048;8.468;2022-07-22T14:24:16;36.60;38.50
10538;DHT22;5317;49.048;8.468;2022-07-22T14:26:43;36.50;38.00
10538;DHT22;5317;49.048;8.468;2022-07-22T14:29:10;36.60;38.00
10538;DHT22;5317;49.048;8.468;2022-07-22T14:31:37;36.60;38.20
10538;DHT22;5317;49.048;8.468;2022-07-22T14:34:06;36.60;38.10
10538;DHT22;5317;49.048;8.468;2022-07-22T14:36:33;36.60;38.00
10538;DHT22;5317;49.048;8.468;2022-07-22T14:39:00;36.60;38.10
10538;DHT22;5317;49.048;8.468;2022-07-22T14:41:27;36.60;38.20
10538;DHT22;5317;49.048;8.468;2022-07-22T14:43:54;36.60;37.80
10538;DHT22;5317;49.048;8.468;2022-07-22T14:46:22;36.70;38.20
10538;DHT22;5317;49.048;8.468;2022-07-22T14:48:49;36.70;38.20
10538;DHT22;5317;49.048;8.468;2022-07-22T14:51:19;36.60;38.10
10538;DHT22;5317;49.048;8.468;2022-07-22T14:53:47;36.70;38.30
10538;DHT22;5317;49.048;8.468;2022-07-22T14:56:15;36.60;38.20
10538;DHT22;5317;49.048;8.468;2022-07-22T14:58:43;36.60;38.40
10538;DHT22;5317;49.048;8.468;2022-07-22T15:01:10;36.60;38.60
10538;DHT22;5317;49.048;8.468;2022-07-22T15:03:37;36.60;38.60
10538;DHT22;5317;49.048;8.468;2022-07-22T15:06:05;36.50;38.60
10538;DHT22;5317;49.048;8.468;2022-07-22T15:08:33;36.50;38.60
10538;DHT22;5317;49.048;8.468;2022-07-22T15:11:00;36.40;39.20
10538;DHT22;5317;49.048;8.468;2022-07-22T15:13:28;36.40;38.60
10538;DHT22;5317;49.048;8.468;2022-07-22T15:15:55;36.40;38.60
10538;DHT22;5317;49.048;8.468;2022-07-22T15:18:24;36.40;38.80
10538;DHT22;5317;49.048;8.468;2022-07-22T15:20:51;36.30;38.80
10538;DHT22;5317;49.048;8.468;2022-07-22T15:23:21;36.30;38.70
10538;DHT22;5317;49.048;8.468;2022-07-22T15:25:52;36.30;38.80
10538;DHT22;5317;49.048;8.468;2022-07-22T15:28:19;36.30;38.50
10538;DHT22;5317;49.048;8.468;2022-07-22T15:30:46;36.20;38.50
10538;DHT22;5317;49.048;8.468;2022-07-22T15:33:13;36.20;38.60
10538;DHT22;5317;49.048;8.468;2022-07-22T15:35:41;36.10;39.20
10538;DHT22;5317;49.048;8.468;2022-07-22T15:38:08;36.10;38.50
10538;DHT22;5317;49.048;8.468;2022-07-22T15:40:35;36.20;38.60
10538;DHT22;5317;49.048;8.468;2022-07-22T15:43:05;36.10;38.40
10538;DHT22;5317;49.048;8.468;2022-07-22T15:45:32;36.10;38.50
10538;DHT22;5317;49.048;8.468;2022-07-22T15:48:00;36.00;38.40
10538;DHT22;5317;49.048;8.468;2022-07-22T15:50:31;36.00;38.60
10538;DHT22;5317;49.048;8.468;2022-07-22T15:52:58;35.90;38.80
10538;DHT22;5317;49.048;8.468;2022-07-22T15:55:25;35.80;38.90